< < Back
Terminal Aerodrome Forecast


Current Version              Previous Versions:   1  2  3  4  5  6  7  8  9  

Terminal Aerodrome Forecast

476
FTUS42 KFFC 270527
TAFPDK
TAF
KPDK 270527Z 2706/2806 05003KT P6SM SCT070
      TEMPO 2710/2713 4SM BR
     FM271400 09007KT P6SM SCT045
     FM271800 10009KT P6SM SCT060
     FM280100 08003KT P6SM FEW080=

Latest METAR

794
SAUS70 KWBC 272000 RRC
MTRPDK
METAR KPDK 271953Z 11008KT 080V140 10SM FEW050 FEW070 SCT100 31/19 A3009
RMK AO2 SLP168 T03110194


USA.gov is the U.S. government's official web portal to all federal, state and local government web resources and services.